Time;durP1;ratioP1;P1;durP2;ratioP2;P2;SDS_P1;SDS_P2;PMS_P1;PMS_P2;Temp;Humidity;BMP_temperature;BMP_pressure;BME280_temperature;BME280_humidity;BME280_pressure;Samples;Min_cycle;Max_cycle;Signal;HPM_P1;HPM_P2
2023/03/12 00:00:30;;;;;;;7.03;3.70;;;5.90;50.10;;;;;;4995613;28;20037;-71
2023/03/12 00:02:56;;;;;;;6.53;3.80;;;5.90;50.20;;;;;;4995518;28;20026;-72
2023/03/12 00:05:24;;;;;;;5.18;3.00;;;5.80;50.20;;;;;;4995440;28;20041;-71
2023/03/12 00:07:50;;;;;;;6.90;3.60;;;5.80;50.30;;;;;;4994235;28;20038;-71
2023/03/12 00:10:17;;;;;;;12.55;6.40;;;5.70;50.40;;;;;;4995672;28;20033;-72
2023/03/12 00:12:43;;;;;;;9.82;5.45;;;5.70;50.50;;;;;;4994228;28;20045;-72
2023/03/12 00:15:09;;;;;;;6.82;3.78;;;5.70;50.60;;;;;;4995354;28;20451;-71
2023/03/12 00:17:38;;;;;;;6.05;3.50;;;5.70;50.80;;;;;;4995459;28;20137;-71
2023/03/12 00:20:07;;;;;;;5.50;3.70;;;5.60;50.80;;;;;;4995364;28;20483;-71
2023/03/12 00:22:34;;;;;;;8.07;3.63;;;5.60;50.90;;;;;;4995186;28;20018;-71
2023/03/12 00:24:59;;;;;;;5.55;3.20;;;5.50;50.80;;;;;;4995291;28;20065;-72
2023/03/12 00:27:26;;;;;;;8.50;3.60;;;5.50;51.00;;;;;;4994916;28;20053;-71
2023/03/12 00:29:52;;;;;;;8.75;3.78;;;5.50;51.30;;;;;;4995111;28;20018;-72
2023/03/12 00:32:18;;;;;;;6.45;3.47;;;5.50;51.50;;;;;;4995080;28;20031;-71
2023/03/12 00:34:49;;;;;;;6.22;3.65;;;5.40;51.60;;;;;;4995948;28;20023;-72
2023/03/12 00:37:14;;;;;;;7.53;3.95;;;5.40;51.60;;;;;;4995020;28;20530;-72
2023/03/12 00:39:40;;;;;;;5.70;3.35;;;5.40;51.60;;;;;;4995111;28;20034;-71
2023/03/12 00:42:06;;;;;;;8.02;3.92;;;5.40;51.70;;;;;;4994921;28;20062;-71
2023/03/12 00:44:32;;;;;;;13.77;4.60;;;5.30;51.80;;;;;;4994920;28;20030;-71
2023/03/12 00:46:57;;;;;;;9.32;5.10;;;5.30;52.00;;;;;;4993520;28;20027;-72
2023/03/12 00:49:23;;;;;;;12.23;5.30;;;5.30;52.00;;;;;;4995092;28;20049;-71
2023/03/12 00:51:49;;;;;;;9.98;5.40;;;5.30;52.00;;;;;;4994913;28;20382;-72
2023/03/12 00:54:15;;;;;;;10.38;5.80;;;5.20;52.10;;;;;;4995451;28;20026;-72
2023/03/12 00:56:40;;;;;;;10.27;4.75;;;5.20;52.20;;;;;;4994662;28;20088;-71
2023/03/12 00:59:06;;;;;;;6.80;3.70;;;5.20;52.30;;;;;;4995000;28;20479;-71
2023/03/12 01:01:32;;;;;;;6.63;3.60;;;5.10;52.30;;;;;;4994504;28;20034;-71
2023/03/12 01:03:58;;;;;;;6.40;3.88;;;5.10;52.40;;;;;;4994531;28;20019;-71
2023/03/12 01:06:24;;;;;;;5.95;3.58;;;5.10;52.50;;;;;;4994424;28;20077;-71
2023/03/12 01:08:51;;;;;;;5.03;3.40;;;5.10;52.60;;;;;;4994378;28;20056;-71
2023/03/12 01:11:19;;;;;;;6.28;3.65;;;5.10;52.60;;;;;;4992993;28;20120;-71
2023/03/12 01:13:45;;;;;;;7.68;4.10;;;5.10;52.80;;;;;;4994333;28;20146;-70
2023/03/12 01:16:11;;;;;;;7.03;4.03;;;5.00;52.70;;;;;;4994261;28;20025;-70
2023/03/12 01:18:37;;;;;;;10.00;4.15;;;5.00;52.90;;;;;;4994246;28;20026;-71
2023/03/12 01:21:03;;;;;;;8.70;3.90;;;5.00;53.00;;;;;;4992809;28;20022;-72
2023/03/12 01:23:29;;;;;;;9.73;4.53;;;5.00;53.10;;;;;;4994379;28;20030;-71
2023/03/12 01:25:55;;;;;;;8.65;4.22;;;5.00;53.20;;;;;;4993911;28;20057;-71
2023/03/12 01:28:22;;;;;;;12.45;5.70;;;4.90;53.20;;;;;;4992806;28;20026;-71
2023/03/12 01:30:48;;;;;;;21.35;8.57;;;5.00;53.30;;;;;;4994165;28;20037;-72
2023/03/12 01:33:14;;;;;;;11.00;5.32;;;4.90;53.30;;;;;;4994333;28;20022;-72
2023/03/12 01:35:40;;;;;;;14.65;6.25;;;4.90;53.20;;;;;;4994186;28;20033;-71
2023/03/12 01:38:10;;;;;;;10.15;4.38;;;4.90;53.30;;;;;;4993486;28;20026;-71
2023/03/12 01:40:36;;;;;;;7.47;4.00;;;4.90;53.30;;;;;;4993961;28;20106;-71
2023/03/12 01:43:28;;;;;;;7.30;3.70;;;4.90;53.20;;;;;;4993953;28;20026;-72
2023/03/12 01:46:15;;;;;;;6.53;3.35;;;4.90;53.30;;;;;;4993838;28;20061;-71
2023/03/12 01:48:44;;;;;;;8.88;3.70;;;4.90;53.20;;;;;;4993841;28;20069;-71
2023/03/12 01:51:13;;;;;;;6.13;3.80;;;4.90;53.10;;;;;;4993540;28;20027;-72
2023/03/12 01:53:43;;;;;;;6.78;3.78;;;4.80;53.10;;;;;;4995535;28;20030;-72
2023/03/12 01:56:11;;;;;;;8.05;3.38;;;4.80;53.10;;;;;;5013720;28;20018;-71
2023/03/12 01:58:39;;;;;;;6.80;3.67;;;4.80;53.10;;;;;;5013315;28;20018;-71
2023/03/12 02:01:05;;;;;;;6.13;3.45;;;4.80;53.20;;;;;;5011974;28;20476;-71
2023/03/12 02:03:33;;;;;;;9.68;3.75;;;4.80;53.30;;;;;;5013408;28;20408;-71
2023/03/12 02:06:07;;;;;;;5.07;3.42;;;4.80;53.30;;;;;;5013136;28;20029;-71
2023/03/12 02:08:38;;;;;;;6.65;3.60;;;4.70;53.30;;;;;;5013264;28;20018;-71
2023/03/12 02:11:04;;;;;;;12.77;3.55;;;4.70;53.20;;;;;;5011776;28;20117;-71
2023/03/12 02:13:30;;;;;;;4.75;3.00;;;4.70;53.20;;;;;;5012838;28;20427;-71
2023/03/12 02:15:56;;;;;;;7.70;3.80;;;4.70;53.20;;;;;;5012942;28;20029;-71
2023/03/12 02:18:22;;;;;;;7.20;3.40;;;4.70;53.30;;;;;;5011720;28;20026;-71
2023/03/12 02:21:04;;;;;;;6.65;3.10;;;4.60;53.30;;;;;;4999182;28;20022;-71
2023/03/12 02:23:35;;;;;;;5.35;3.22;;;4.60;53.40;;;;;;4993736;28;20035;-72
2023/03/12 02:26:03;;;;;;;9.52;4.93;;;4.60;53.50;;;;;;5008281;28;20029;-71
2023/03/12 02:28:32;;;;;;;8.57;4.40;;;4.50;53.40;;;;;;5032615;28;20021;-72
2023/03/12 02:31:02;;;;;;;8.88;4.63;;;4.50;53.40;;;;;;5032630;28;20025;-71
2023/03/12 02:33:28;;;;;;;5.93;3.42;;;4.50;53.90;;;;;;5032546;28;20444;-71
2023/03/12 02:35:55;;;;;;;7.30;3.50;;;4.40;54.10;;;;;;5031256;28;20109;-71
2023/03/12 02:38:46;;;;;;;6.28;3.20;;;4.40;54.30;;;;;;5032549;28;20026;-71
2023/03/12 02:41:23;;;;;;;7.28;3.10;;;4.30;54.10;;;;;;5032479;28;20052;-71
2023/03/12 02:44:19;;;;;;;5.75;3.13;;;4.30;54.00;;;;;;5032526;28;20100;-71
2023/03/12 02:46:50;;;;;;;4.45;2.70;;;4.30;54.20;;;;;;5032635;28;20340;-71
2023/03/12 02:49:18;;;;;;;4.53;2.60;;;4.30;54.00;;;;;;5032398;28;20022;-72
2023/03/12 02:51:45;;;;;;;7.40;2.92;;;4.30;54.00;;;;;;5036421;28;20109;-71
2023/03/12 02:54:13;;;;;;;6.68;3.30;;;4.30;54.20;;;;;;5018580;28;20062;-71
2023/03/12 02:56:39;;;;;;;6.18;3.25;;;4.20;54.30;;;;;;4996777;28;20105;-71
2023/03/12 02:59:06;;;;;;;5.95;3.78;;;4.20;54.30;;;;;;4996747;28;20105;-72
2023/03/12 03:01:32;;;;;;;7.20;3.83;;;4.10;54.50;;;;;;4995208;28;20566;-71
2023/03/12 03:03:59;;;;;;;5.63;3.20;;;4.10;54.70;;;;;;4996854;28;20023;-71
2023/03/12 03:06:25;;;;;;;6.68;3.28;;;4.10;54.80;;;;;;4996460;28;20076;-72
2023/03/12 03:08:51;;;;;;;6.35;3.10;;;4.10;54.90;;;;;;4996503;28;20023;-72
2023/03/12 03:11:18;;;;;;;6.65;3.08;;;4.00;55.00;;;;;;4996605;28;20076;-71
2023/03/12 03:13:43;;;;;;;4.13;2.72;;;4.00;55.10;;;;;;4994944;28;20054;-71
2023/03/12 03:16:11;;;;;;;6.80;3.35;;;4.00;55.10;;;;;;4996495;28;20023;-72
2023/03/12 03:18:37;;;;;;;7.07;3.10;;;4.00;55.00;;;;;;4996325;28;20051;-73
2023/03/12 03:21:06;;;;;;;7.80;3.10;;;4.00;55.10;;;;;;4996416;28;20434;-72
2023/03/12 03:23:32;;;;;;;5.53;3.25;;;4.00;55.10;;;;;;4996580;28;20188;-71
2023/03/12 03:25:58;;;;;;;4.40;2.72;;;3.90;55.10;;;;;;4995917;28;20022;-72
2023/03/12 03:28:26;;;;;;;5.25;3.30;;;3.90;55.00;;;;;;4996018;28;20026;-72
2023/03/12 03:30:53;;;;;;;5.10;2.92;;;3.90;55.00;;;;;;4996416;28;20030;-72
2023/03/12 03:33:20;;;;;;;5.75;3.40;;;3.90;55.10;;;;;;4994892;28;20026;-71
2023/03/12 03:35:47;;;;;;;5.22;3.45;;;3.90;55.20;;;;;;4994763;28;20044;-71
2023/03/12 03:38:13;;;;;;;5.95;2.88;;;3.90;55.30;;;;;;4994757;28;20058;-71
2023/03/12 03:40:39;;;;;;;10.05;2.97;;;3.90;55.30;;;;;;4996044;28;20063;-71
2023/03/12 03:43:04;;;;;;;9.13;2.90;;;3.80;55.20;;;;;;4994660;28;20041;-71
2023/03/12 03:45:30;;;;;;;4.35;2.65;;;3.80;55.30;;;;;;4994664;28;20023;-72
2023/03/12 03:47:56;;;;;;;5.32;2.58;;;3.80;55.40;;;;;;4995874;28;20026;-71
2023/03/12 03:50:22;;;;;;;7.88;3.90;;;3.80;55.20;;;;;;4995741;28;20026;-71
2023/03/12 03:52:47;;;;;;;5.45;3.45;;;3.70;55.60;;;;;;4995763;28;20093;-71
2023/03/12 03:55:13;;;;;;;7.13;3.13;;;3.70;55.80;;;;;;5010809;28;20030;-72
2023/03/12 03:57:39;;;;;;;6.82;3.10;;;3.70;55.80;;;;;;4995774;28;20026;-72
2023/03/12 04:00:08;;;;;;;4.53;2.50;;;3.70;55.80;;;;;;4995166;28;20388;-72
2023/03/12 04:02:35;;;;;;;7.32;2.70;;;3.70;55.70;;;;;;4995516;28;20029;-71
2023/03/12 04:05:01;;;;;;;4.60;2.30;;;3.60;55.70;;;;;;4995552;28;20033;-72
2023/03/12 04:07:27;;;;;;;4.80;2.85;;;3.70;55.80;;;;;;4995967;28;20053;-72
2023/03/12 04:09:54;;;;;;;5.25;2.97;;;3.60;55.80;;;;;;4995482;28;20070;-72
2023/03/12 04:12:20;;;;;;;5.63;3.28;;;3.60;55.80;;;;;;4995538;28;20038;-72
2023/03/12 04:14:46;;;;;;;3.42;2.33;;;3.60;55.80;;;;;;4995127;28;20137;-71
2023/03/12 04:17:12;;;;;;;4.20;2.30;;;3.60;55.70;;;;;;4995142;28;20124;-72
2023/03/12 04:19:37;;;;;;;4.70;2.25;;;3.60;55.70;;;;;;4995174;28;20026;-72
2023/03/12 04:22:03;;;;;;;6.22;2.80;;;3.60;55.80;;;;;;4995059;28;20407;-72
2023/03/12 04:24:29;;;;;;;5.07;2.72;;;3.60;55.80;;;;;;4994958;28;20110;-72
2023/03/12 04:26:56;;;;;;;5.30;3.00;;;3.60;55.80;;;;;;4995149;28;20023;-72
2023/03/12 04:29:22;;;;;;;5.47;3.10;;;3.60;55.80;;;;;;4995079;28;20026;-71
2023/03/12 04:31:48;;;;;;;7.75;3.33;;;3.60;55.90;;;;;;4994973;28;20407;-72
2023/03/12 04:34:14;;;;;;;4.90;3.00;;;3.70;56.20;;;;;;4994825;28;20057;-72
2023/03/12 04:36:39;;;;;;;4.75;3.08;;;3.70;56.10;;;;;;4994889;28;20030;-72
2023/03/12 04:39:06;;;;;;;6.60;3.20;;;3.70;56.10;;;;;;4994838;28;20502;-72
2023/03/12 04:41:33;;;;;;;5.57;2.97;;;3.70;56.30;;;;;;4993440;28;20027;-72
2023/03/12 04:43:58;;;;;;;5.60;2.97;;;3.60;56.30;;;;;;4994918;28;20148;-72
2023/03/12 04:46:24;;;;;;;4.90;3.00;;;3.60;56.40;;;;;;4993375;28;20113;-72
2023/03/12 04:48:50;;;;;;;9.10;5.07;;;3.60;56.40;;;;;;4993346;28;20023;-71
2023/03/12 04:51:16;;;;;;;9.95;4.15;;;3.70;56.70;;;;;;4994670;28;20032;-72
2023/03/12 04:53:42;;;;;;;8.38;4.10;;;3.70;56.80;;;;;;4994403;28;20350;-72
2023/03/12 04:56:08;;;;;;;5.63;3.15;;;3.70;56.80;;;;;;4994520;28;20034;-71
2023/03/12 04:58:34;;;;;;;4.95;3.30;;;3.70;57.00;;;;;;4994479;28;20033;-71
2023/03/12 05:01:00;;;;;;;7.07;2.75;;;3.70;57.00;;;;;;4993044;28;20034;-72
2023/03/12 05:03:26;;;;;;;6.72;3.08;;;3.70;56.90;;;;;;4994649;28;20041;-72
2023/03/12 05:05:52;;;;;;;5.65;2.92;;;3.70;56.90;;;;;;4994456;28;20030;-72
2023/03/12 05:08:18;;;;;;;4.25;2.50;;;3.70;56.80;;;;;;4994443;28;20022;-72
2023/03/12 05:10:44;;;;;;;4.50;2.63;;;3.70;56.60;;;;;;4994371;28;20423;-71
2023/03/12 05:13:17;;;;;;;6.65;2.90;;;3.70;56.50;;;;;;4993403;28;20041;-72
2023/03/12 05:15:44;;;;;;;6.00;3.20;;;3.70;56.40;;;;;;4992888;28;20122;-72
2023/03/12 05:18:10;;;;;;;7.60;3.55;;;3.70;56.50;;;;;;4994191;28;20038;-72
2023/03/12 05:20:35;;;;;;;3.88;2.30;;;3.70;56.50;;;;;;4994210;28;20109;-72
2023/03/12 05:23:02;;;;;;;5.00;2.95;;;3.70;56.50;;;;;;4994105;28;20027;-72
2023/03/12 05:25:27;;;;;;;4.40;2.40;;;3.70;56.40;;;;;;4993896;28;20026;-72
2023/03/12 05:27:55;;;;;;;5.28;2.97;;;3.70;56.50;;;;;;4994234;28;20473;-72
2023/03/12 05:30:20;;;;;;;3.45;2.20;;;3.70;56.40;;;;;;4992763;28;20427;-71
2023/03/12 05:32:46;;;;;;;3.42;2.35;;;3.70;56.40;;;;;;4994099;28;20053;-72
2023/03/12 05:35:12;;;;;;;5.05;2.30;;;3.70;56.50;;;;;;4992672;28;20105;-71
2023/03/12 05:37:38;;;;;;;5.97;3.33;;;3.70;56.50;;;;;;4994124;28;20026;-71
2023/03/12 05:40:06;;;;;;;9.93;5.13;;;3.70;56.50;;;;;;4993900;28;20030;-72
2023/03/12 05:42:32;;;;;;;11.75;4.95;;;3.70;56.60;;;;;;4994041;28;20033;-71
2023/03/12 05:44:58;;;;;;;8.00;4.20;;;3.70;56.60;;;;;;4993777;28;20018;-72
2023/03/12 05:47:24;;;;;;;4.93;3.03;;;3.70;56.80;;;;;;4993741;28;20026;-71
2023/03/12 05:49:49;;;;;;;4.38;2.72;;;3.80;56.90;;;;;;4993724;28;20097;-72
2023/03/12 05:52:15;;;;;;;4.68;2.92;;;3.80;57.00;;;;;;4993881;28;20168;-71
2023/03/12 05:54:41;;;;;;;5.25;2.60;;;3.80;57.10;;;;;;4992719;28;20472;-72
2023/03/12 05:57:07;;;;;;;5.40;2.60;;;3.90;57.10;;;;;;4993541;28;20432;-71
2023/03/12 05:59:33;;;;;;;5.97;3.00;;;4.00;57.10;;;;;;4993738;28;20451;-71
2023/03/12 06:01:59;;;;;;;5.55;2.95;;;4.10;57.20;;;;;;4993572;28;20022;-71
2023/03/12 06:04:25;;;;;;;5.47;2.72;;;4.10;57.10;;;;;;4992274;28;20037;-72
2023/03/12 06:06:51;;;;;;;6.18;2.42;;;4.20;57.00;;;;;;4993728;28;20093;-72
2023/03/12 06:09:17;;;;;;;3.78;2.45;;;4.30;56.90;;;;;;4992266;28;20030;-72
2023/03/12 06:11:42;;;;;;;4.40;2.28;;;4.40;56.80;;;;;;4993577;28;20080;-72
2023/03/12 06:14:08;;;;;;;3.95;2.35;;;4.50;56.80;;;;;;4993220;28;20065;-71
2023/03/12 06:16:34;;;;;;;4.50;2.60;;;4.60;56.90;;;;;;4993785;28;20037;-72
2023/03/12 06:19:01;;;;;;;5.30;2.97;;;4.70;56.90;;;;;;4993622;28;20037;-72
2023/03/12 06:21:30;;;;;;;5.28;3.10;;;4.90;56.90;;;;;;4993442;28;20491;-72
2023/03/12 06:23:57;;;;;;;4.40;2.67;;;4.90;56.80;;;;;;4996178;28;20054;-71
2023/03/12 06:26:23;;;;;;;3.53;2.70;;;5.10;56.90;;;;;;4997472;28;20038;-72
2023/03/12 06:28:50;;;;;;;5.13;2.90;;;5.20;56.70;;;;;;4997443;28;20515;-71
2023/03/12 06:31:16;;;;;;;6.65;2.78;;;5.30;56.60;;;;;;4997332;28;20062;-72
2023/03/12 06:33:42;;;;;;;3.67;2.53;;;5.40;56.40;;;;;;4997320;28;20030;-72
2023/03/12 06:36:09;;;;;;;4.75;2.78;;;5.50;56.30;;;;;;4997269;28;20530;-72
2023/03/12 06:38:36;;;;;;;8.30;3.78;;;5.60;56.10;;;;;;4997175;28;20037;-71
2023/03/12 06:41:22;;;;;;;5.88;2.67;;;5.70;56.00;;;;;;4996969;28;20431;-72
2023/03/12 06:43:48;;;;;;;5.10;2.78;;;5.80;56.00;;;;;;4997093;28;20507;-72
2023/03/12 06:46:17;;;;;;;5.82;2.72;;;5.90;55.80;;;;;;4997078;28;20053;-72
2023/03/12 06:48:45;;;;;;;6.40;3.42;;;6.00;55.70;;;;;;4996918;28;20014;-72
2023/03/12 06:51:12;;;;;;;5.30;3.53;;;6.10;56.20;;;;;;4995529;28;20332;-73
2023/03/12 06:53:38;;;;;;;6.28;3.50;;;6.20;55.50;;;;;;4998015;28;20023;-73
2023/03/12 06:56:04;;;;;;;6.25;3.67;;;6.30;55.30;;;;;;5016345;28;20030;-71
2023/03/12 06:58:30;;;;;;;5.47;3.75;;;6.50;55.10;;;;;;5016259;28;20033;-71
2023/03/12 07:00:56;;;;;;;5.85;3.83;;;6.50;55.50;;;;;;5016054;28;20022;-71
2023/03/12 07:03:22;;;;;;;8.30;4.07;;;6.60;54.80;;;;;;5016550;28;20026;-72
2023/03/12 07:05:49;;;;;;;5.57;2.95;;;6.70;54.60;;;;;;5016272;28;20053;-71
2023/03/12 07:08:17;;;;;;;4.80;3.00;;;6.90;54.50;;;;;;5016275;28;20053;-72
2023/03/12 07:10:44;;;;;;;4.38;2.75;;;7.00;54.40;;;;;;5016029;28;20067;-72
2023/03/12 07:13:10;;;;;;;5.53;3.00;;;7.10;54.20;;;;;;5007808;28;20034;-72
2023/03/12 07:15:36;;;;;;;5.80;3.33;;;7.10;54.00;;;;;;4996541;28;20034;-73
2023/03/12 07:18:10;;;;;;;4.50;2.80;;;7.20;53.80;;;;;;4996237;28;20102;-72
2023/03/12 07:20:37;;;;;;;5.32;3.10;;;7.30;53.70;;;;;;4996148;28;20022;-72
2023/03/12 07:23:03;;;;;;;4.20;2.95;;;7.40;53.50;;;;;;4996394;28;20022;-72
2023/03/12 07:25:29;;;;;;;7.75;3.15;;;7.40;53.30;;;;;;5012465;28;20030;-71
2023/03/12 07:27:55;;;;;;;4.93;3.35;;;7.50;53.10;;;;;;5016036;28;20411;-72
2023/03/12 07:30:21;;;;;;;7.28;3.75;;;7.60;52.80;;;;;;5015878;28;20022;-72
2023/03/12 07:32:47;;;;;;;7.00;4.03;;;7.60;52.30;;;;;;5015789;28;20026;-72
2023/03/12 07:35:13;;;;;;;7.13;3.92;;;7.60;51.70;;;;;;5014938;28;20029;-72
2023/03/12 07:37:39;;;;;;;5.75;3.05;;;7.60;51.60;;;;;;5015720;28;20026;-72
2023/03/12 07:40:06;;;;;;;6.15;3.75;;;7.50;51.30;;;;;;5015574;28;20084;-72
2023/03/12 07:42:32;;;;;;;10.32;4.32;;;7.50;50.90;;;;;;5015537;28;20028;-72
2023/03/12 07:44:58;;;;;;;10.38;3.90;;;7.40;50.40;;;;;;5015762;28;20045;-72
2023/03/12 07:47:24;;;;;;;7.95;4.47;;;7.30;50.50;;;;;;5015567;28;20472;-72
2023/03/12 07:49:50;;;;;;;7.50;3.80;;;7.20;50.60;;;;;;5014256;28;20383;-72
2023/03/12 07:52:18;;;;;;;7.40;4.07;;;7.20;50.80;;;;;;5014200;28;20026;-72
2023/03/12 07:54:44;;;;;;;4.20;3.22;;;7.20;51.20;;;;;;5005124;28;20026;-72
2023/03/12 07:57:10;;;;;;;6.13;3.75;;;7.20;51.40;;;;;;4995811;28;20030;-72
2023/03/12 07:59:36;;;;;;;5.25;3.25;;;7.20;51.40;;;;;;4995719;28;20468;-72
2023/03/12 08:02:02;;;;;;;7.45;3.80;;;7.30;51.60;;;;;;4995511;28;20030;-73
2023/03/12 08:04:28;;;;;;;6.13;3.55;;;7.30;51.60;;;;;;4996837;28;20061;-72
2023/03/12 08:06:54;;;;;;;8.45;3.47;;;7.40;51.60;;;;;;4995638;28;20022;-72
2023/03/12 08:09:20;;;;;;;8.32;4.43;;;7.50;51.40;;;;;;4996018;28;20029;-72
2023/03/12 08:11:46;;;;;;;12.32;6.53;;;7.50;51.20;;;;;;4995586;28;20384;-73
2023/03/12 08:14:11;;;;;;;12.18;5.97;;;7.60;51.30;;;;;;4995368;28;20072;-73
2023/03/12 08:16:37;;;;;;;12.23;6.72;;;7.70;51.50;;;;;;4995440;28;20483;-73
2023/03/12 08:19:03;;;;;;;15.00;8.23;;;7.80;51.50;;;;;;4995434;28;20035;-73
2023/03/12 08:21:29;;;;;;;18.63;9.68;;;7.90;51.60;;;;;;4995380;28;20030;-73
2023/03/12 08:23:54;;;;;;;16.90;9.15;;;8.00;51.60;;;;;;4995240;28;20396;-73
2023/03/12 08:26:20;;;;;;;21.10;10.15;;;8.20;51.50;;;;;;4995314;28;20022;-73
2023/03/12 08:28:46;;;;;;;19.23;10.32;;;8.30;51.30;;;;;;4995253;28;20542;-72
2023/03/12 08:31:11;;;;;;;17.92;9.57;;;8.40;50.80;;;;;;4995285;28;20050;-73
2023/03/12 08:33:42;;;;;;;19.15;9.68;;;8.50;50.50;;;;;;4995375;28;20499;-73
2023/03/12 08:36:08;;;;;;;16.75;9.00;;;8.70;50.40;;;;;;4995254;28;20364;-74
2023/03/12 08:38:34;;;;;;;18.13;8.43;;;8.80;50.30;;;;;;4995160;28;20031;-73
2023/03/12 08:41:01;;;;;;;17.38;8.02;;;8.90;50.20;;;;;;4995209;28;20088;-72
2023/03/12 08:43:27;;;;;;;14.32;8.23;;;9.00;49.90;;;;;;4993768;28;20019;-73
2023/03/12 08:45:58;;;;;;;20.08;9.65;;;9.10;49.80;;;;;;4994979;28;20141;-73
2023/03/12 08:48:25;;;;;;;14.50;7.75;;;9.20;49.10;;;;;;4994892;28;20097;-73
2023/03/12 08:50:53;;;;;;;18.95;8.65;;;9.20;49.00;;;;;;4994796;28;20065;-73
2023/03/12 08:53:19;;;;;;;16.67;7.72;;;9.30;49.00;;;;;;4994871;28;20491;-74
2023/03/12 08:55:44;;;;;;;13.63;7.20;;;9.40;48.70;;;;;;4994671;28;20030;-73
2023/03/12 08:58:10;;;;;;;17.55;8.00;;;9.50;48.80;;;;;;4994893;28;20365;-73
2023/03/12 09:00:36;;;;;;;14.82;7.43;;;9.60;48.70;;;;;;4994636;28;20026;-74
2023/03/12 09:03:02;;;;;;;18.13;7.75;;;9.70;48.50;;;;;;4993561;28;20022;-73
2023/03/12 09:05:30;;;;;;;13.35;6.93;;;9.80;47.60;;;;;;4994729;28;20029;-73
2023/03/12 09:07:57;;;;;;;10.85;6.13;;;9.90;47.60;;;;;;4995434;28;20475;-73
2023/03/12 09:10:26;;;;;;;10.65;5.78;;;10.00;47.50;;;;;;4994634;28;20117;-73
2023/03/12 09:12:51;;;;;;;12.68;6.00;;;10.10;47.90;;;;;;4994660;28;20026;-73
2023/03/12 09:15:17;;;;;;;18.02;6.72;;;10.30;47.20;;;;;;4994385;28;20057;-73
2023/03/12 09:17:43;;;;;;;14.25;6.63;;;10.30;46.20;;;;;;4994448;28;20472;-74
2023/03/12 09:20:13;;;;;;;12.10;6.43;;;10.50;46.60;;;;;;4993080;28;20027;-73
2023/03/12 09:22:40;;;;;;;15.38;7.03;;;10.60;46.10;;;;;;4994511;28;20053;-74
2023/03/12 09:25:08;;;;;;;18.17;6.40;;;10.60;44.70;;;;;;4994681;28;20022;-73
2023/03/12 09:27:39;;;;;;;11.80;6.45;;;10.70;45.10;;;;;;4994255;28;20535;-73
2023/03/12 09:30:07;;;;;;;15.00;6.65;;;10.80;45.40;;;;;;4994264;28;20026;-74
2023/03/12 09:32:33;;;;;;;15.30;8.18;;;10.80;45.10;;;;;;4994180;28;20506;-73
2023/03/12 09:34:59;;;;;;;11.80;6.05;;;10.90;44.20;;;;;;4994158;28;20038;-73
2023/03/12 09:37:25;;;;;;;18.63;6.20;;;11.00;44.90;;;;;;4994119;28;20034;-73
2023/03/12 09:39:52;;;;;;;13.65;6.20;;;11.10;44.90;;;;;;4994301;28;20026;-73
2023/03/12 09:42:32;;;;;;;11.45;5.95;;;11.20;44.90;;;;;;4993984;28;20154;-73
2023/03/12 09:45:00;;;;;;;14.60;5.57;;;11.30;44.70;;;;;;4994161;28;20033;-74
2023/03/12 09:47:33;;;;;;;12.57;5.68;;;11.40;43.30;;;;;;4993988;28;20479;-73
2023/03/12 09:50:05;;;;;;;11.48;5.93;;;11.40;42.80;;;;;;4994158;28;20026;-73
2023/03/12 09:52:47;;;;;;;12.60;5.97;;;11.40;42.40;;;;;;4994087;28;20033;-73
2023/03/12 09:55:20;;;;;;;14.77;5.20;;;11.50;42.40;;;;;;4994158;28;20384;-73
2023/03/12 09:57:49;;;;;;;11.13;5.45;;;11.50;42.60;;;;;;4993507;28;20424;-73
2023/03/12 10:00:19;;;;;;;9.95;5.10;;;11.60;42.30;;;;;;4992451;28;20022;-73
2023/03/12 10:02:53;;;;;;;9.73;4.60;;;11.70;42.80;;;;;;4994021;28;20105;-73
2023/03/12 10:05:37;;;;;;;7.93;4.15;;;11.90;42.90;;;;;;4993978;28;20387;-73
2023/03/12 10:08:15;;;;;;;6.57;3.75;;;12.00;43.10;;;;;;4992453;28;20026;-73
2023/03/12 10:10:47;;;;;;;6.15;3.38;;;12.20;42.50;;;;;;4992463;28;20137;-73
2023/03/12 10:13:36;;;;;;;6.72;2.85;;;12.40;42.10;;;;;;4992224;28;20468;-73
2023/03/12 10:16:31;;;;;;;8.13;3.05;;;12.50;41.40;;;;;;4989597;28;20168;-73
2023/03/12 10:19:03;;;;;;;9.30;2.70;;;12.70;40.90;;;;;;4992466;28;20031;-74
2023/03/12 10:21:48;;;;;;;5.40;3.33;;;12.80;41.10;;;;;;4993664;28;20030;-73
2023/03/12 10:24:30;;;;;;;6.72;3.50;;;12.90;40.50;;;;;;4993982;28;20030;-73
2023/03/12 10:26:57;;;;;;;5.75;3.60;;;13.00;40.40;;;;;;4993719;28;20014;-73
2023/03/12 10:29:40;;;;;;;5.63;3.30;;;13.00;39.30;;;;;;4993792;28;20018;-74
2023/03/12 10:32:06;;;;;;;4.07;2.78;;;13.00;38.70;;;;;;4993585;28;20061;-74
2023/03/12 10:34:42;;;;;;;4.68;2.78;;;13.00;39.50;;;;;;4993266;28;20030;-71
2023/03/12 10:37:29;;;;;;;10.00;3.13;;;13.10;39.40;;;;;;4993447;28;20387;-74
2023/03/12 10:39:55;;;;;;;5.28;2.80;;;13.10;39.30;;;;;;4993236;28;20522;-74
2023/03/12 10:42:23;;;;;;;5.97;3.00;;;13.20;39.30;;;;;;4993332;28;20081;-73
2023/03/12 10:45:18;;;;;;;3.22;2.13;;;13.30;38.50;;;;;;4993593;28;20417;-73
2023/03/12 10:47:47;;;;;;;;;;;13.30;38.60;;;;;;4990032;28;20069;-73
2023/03/12 10:50:22;;;;;;;4.13;2.70;;;13.40;40.20;;;;;;4993569;28;19932;-73
2023/03/12 10:52:50;;;;;;;3.67;2.40;;;13.40;38.10;;;;;;4993262;28;20019;-73
2023/03/12 10:55:28;;;;;;;5.00;3.30;;;13.50;38.40;;;;;;4993038;28;20484;-73
2023/03/12 10:57:55;;;;;;;4.43;2.75;;;13.60;38.10;;;;;;4993269;28;20026;-73
2023/03/12 11:00:26;;;;;;;4.05;2.83;;;13.70;38.40;;;;;;4993008;28;20027;-73
2023/03/12 11:03:18;;;;;;;7.07;3.45;;;13.80;38.20;;;;;;4993204;28;20077;-73
2023/03/12 11:05:51;;;;;;;5.70;2.90;;;13.80;37.00;;;;;;4993128;28;20098;-73
2023/03/12 11:08:34;;;;;;;5.35;3.40;;;13.80;36.20;;;;;;4993171;28;20472;-73
2023/03/12 11:11:03;;;;;;;6.13;3.90;;;13.80;36.00;;;;;;4995547;28;20045;-74
2023/03/12 11:13:34;;;;;;;6.53;3.28;;;13.70;35.80;;;;;;4996668;28;20042;-74
2023/03/12 11:16:26;;;;;;;5.68;3.42;;;13.60;36.50;;;;;;4996682;28;20078;-74
2023/03/12 11:19:00;;;;;;;6.78;3.72;;;13.70;37.10;;;;;;4996610;28;20495;-74
2023/03/12 11:21:27;;;;;;;6.85;3.97;;;13.60;36.00;;;;;;4996529;28;20030;-73
2023/03/12 11:23:56;;;;;;;6.72;4.03;;;13.50;36.40;;;;;;4996912;28;20034;-73
2023/03/12 11:26:24;;;;;;;7.60;4.18;;;13.40;36.40;;;;;;4996556;28;20026;-73
2023/03/12 11:29:00;;;;;;;5.85;4.07;;;13.40;36.00;;;;;;4996432;28;20553;-74
2023/03/12 11:31:33;;;;;;;9.50;5.35;;;13.30;36.80;;;;;;4996397;28;20031;-74
2023/03/12 11:34:04;;;;;;;7.75;4.20;;;13.20;36.90;;;;;;4996355;28;20026;-73
2023/03/12 11:36:40;;;;;;;6.88;4.05;;;13.10;37.20;;;;;;4995176;28;20156;-73
2023/03/12 11:39:32;;;;;;;7.07;4.03;;;13.10;37.30;;;;;;5009837;28;20033;-74
2023/03/12 11:42:06;;;;;;;4.47;3.25;;;13.20;37.90;;;;;;5025193;28;20025;-73
2023/03/12 11:44:56;;;;;;;8.35;3.88;;;13.20;37.50;;;;;;5020164;28;20022;-73
2023/03/12 11:47:36;;;;;;;5.22;3.47;;;13.30;37.50;;;;;;5021969;28;20026;-74
2023/03/12 11:50:43;;;;;;;6.88;4.40;;;13.40;37.60;;;;;;5019004;28;20395;-74
2023/03/12 11:53:26;;;;;;;12.50;3.70;;;13.30;36.40;;;;;;5026439;28;20053;-74
2023/03/12 11:56:25;;;;;;;8.02;3.60;;;13.40;36.80;;;;;;5023152;28;20033;-75
2023/03/12 11:59:05;;;;;;;5.10;3.45;;;13.40;37.00;;;;;;5021552;28;20067;-73
2023/03/12 12:01:55;;;;;;;6.60;3.88;;;13.50;37.70;;;;;;5021486;28;20105;-75
2023/03/12 12:04:42;;;;;;;5.43;3.60;;;13.60;37.80;;;;;;5021922;28;20025;-75
2023/03/12 12:07:32;;;;;;;5.85;3.90;;;13.70;38.90;;;;;;5022547;28;20039;-73
2023/03/12 12:10:07;;;;;;;5.32;3.60;;;13.80;38.10;;;;;;5023405;28;20026;-74
2023/03/12 12:12:55;;;;;;;7.80;4.15;;;13.90;38.40;;;;;;5024039;28;20022;-74
2023/03/12 12:15:27;;;;;;;4.40;3.10;;;14.00;37.80;;;;;;5025695;28;20041;-73
2023/03/12 12:18:22;;;;;;;8.13;4.28;;;14.00;38.10;;;;;;5024991;28;20105;-75
2023/03/12 12:20:56;;;;;;;5.88;3.25;;;14.00;38.00;;;;;;5021161;28;20383;-73
2023/03/12 12:23:32;;;;;;;4.53;3.28;;;14.00;38.30;;;;;;5022301;28;20108;-73
2023/03/12 12:26:07;;;;;;;6.13;3.70;;;14.00;38.60;;;;;;5018825;28;20036;-73
2023/03/12 12:29:02;;;;;;;5.85;3.50;;;14.10;38.70;;;;;;5022766;28;20021;-74
2023/03/12 12:31:53;;;;;;;7.65;3.58;;;14.10;38.50;;;;;;5019815;28;20399;-74
2023/03/12 12:34:37;;;;;;;6.78;3.65;;;14.00;38.60;;;;;;5024085;28;20029;-74
2023/03/12 12:37:15;;;;;;;4.75;3.65;;;14.00;39.00;;;;;;5024508;28;20100;-74
2023/03/12 12:39:48;;;;;;;6.38;3.75;;;14.00;39.20;;;;;;5022020;28;20541;-74
2023/03/12 12:42:23;;;;;;;8.23;4.43;;;14.00;39.70;;;;;;5022968;28;20021;-74
2023/03/12 12:44:52;;;;;;;4.53;3.40;;;14.00;39.90;;;;;;5021262;28;20029;-73
2023/03/12 12:47:31;;;;;;;5.25;3.63;;;14.10;40.10;;;;;;5023141;28;20026;-74
2023/03/12 12:49:59;;;;;;;5.30;3.60;;;14.00;40.20;;;;;;5024111;28;20056;-74
2023/03/12 12:52:26;;;;;;;6.03;3.83;;;14.10;40.10;;;;;;5020213;28;20445;-74
2023/03/12 12:55:09;;;;;;;4.93;3.50;;;14.10;39.90;;;;;;5022641;28;20068;-74
2023/03/12 12:57:48;;;;;;;4.65;3.50;;;14.00;40.00;;;;;;5023433;28;20017;-75
2023/03/12 13:00:48;;;;;;;7.72;3.95;;;14.10;40.20;;;;;;5022268;28;20026;-74
2023/03/12 13:03:19;;;;;;;4.90;3.67;;;14.10;40.10;;;;;;5021912;28;20025;-75
2023/03/12 13:05:53;;;;;;;7.20;4.30;;;14.10;40.40;;;;;;5016954;28;20472;-73